Terminal Aerodrome Forecast
Issued by NWS Bismarck, ND

Home | Current Version | Previous Version | Text Only | Print | Product List | Glossary Off
Versions: 1 2 3 4 5 6 7 8 9 10 11 12 13 14 15 16 17 18 19 20 21 22 23

735
FTUS43 KBIS 081617 AAC
TAFBIS
TAF AMD
KBIS 081617Z 0816/0912 28012KT P6SM FEW020 SCT050
     FM081800 30015G22KT P6SM SCT030
     FM082100 31009KT P6SM BKN100
     FM090200 31005KT P6SM BKN040=

USA.gov is the U.S. government's official web portal to all federal, state and local government web resources and services.